createdAt,value
2018-10-01T00:00:01.854Z,74.67
2018-10-01T00:02:28.746Z,74.05
2018-10-01T00:04:55.678Z,74.25
2018-10-01T00:07:23.554Z,76.49
2018-10-01T00:09:50.418Z,77.41
2018-10-01T00:12:17.266Z,76.49
2018-10-01T00:14:44.127Z,77.57
2018-10-01T00:17:11.008Z,76.87
2018-10-01T00:19:43.857Z,77.52
2018-10-01T00:22:16.673Z,77.01
2018-10-01T00:24:43.523Z,75.12
2018-10-01T00:27:10.431Z,75.67
2018-10-01T00:29:37.346Z,74.36
2018-10-01T00:32:04.219Z,74.35
2018-10-01T00:34:31.042Z,74.03
2018-10-01T00:36:57.906Z,73.02
2018-10-01T00:39:24.754Z,74.02
2018-10-01T00:41:51.610Z,73.91
2018-10-01T00:44:18.486Z,73.94
2018-10-01T00:46:45.430Z,75.08
2018-10-01T00:49:12.286Z,75.11
2018-10-01T00:51:39.127Z,75.17
2018-10-01T00:54:06.405Z,74.21
2018-10-01T00:56:33.246Z,73.66
2018-10-01T00:59:00.147Z,73.74
2018-10-01T01:01:27.116Z,73.50
2018-10-01T01:03:54.014Z,72.29
2018-10-01T01:06:20.887Z,73.97
2018-10-01T01:08:47.790Z,75.28
2018-10-01T01:11:14.917Z,74.24
2018-10-01T01:13:41.854Z,75.42
2018-10-01T01:16:08.713Z,75.13
2018-10-01T01:18:35.551Z,75.04
2018-10-01T01:21:02.450Z,74.73
2018-10-01T01:23:29.382Z,74.22
2018-10-01T01:25:56.258Z,73.79
2018-10-01T01:28:23.201Z,73.02
2018-10-01T01:30:50.048Z,71.99
2018-10-01T01:33:16.909Z,72.13
2018-10-01T01:35:43.746Z,70.77
2018-10-01T01:38:10.612Z,69.12
2018-10-01T01:40:37.462Z,68.69
2018-10-01T01:43:04.326Z,68.14
2018-10-01T01:45:31.183Z,68.01
2018-10-01T01:47:58.034Z,67.16
2018-10-01T01:50:24.902Z,66.17
2018-10-01T01:52:51.830Z,67.31
2018-10-01T01:55:18.705Z,65.99
2018-10-01T01:57:45.563Z,65.09
2018-10-01T02:00:12.387Z,65.25
2018-10-01T02:02:39.270Z,64.22
2018-10-01T02:05:06.136Z,63.01
2018-10-01T02:07:33.069Z,62.70
2018-10-01T02:09:59.926Z,65.45
2018-10-01T02:12:26.807Z,65.79
2018-10-01T02:14:53.740Z,66.64
2018-10-01T02:17:20.606Z,67.83
2018-10-01T02:19:47.574Z,68.60
2018-10-01T02:22:14.434Z,70.11
2018-10-01T02:24:41.381Z,70.31
2018-10-01T02:27:08.222Z,69.52
2018-10-01T02:29:35.066Z,71.93
2018-10-01T02:32:01.906Z,72.91
2018-10-01T02:34:28.794Z,74.04
2018-10-01T02:36:55.650Z,73.33
2018-10-01T02:39:22.594Z,71.64
2018-10-01T02:41:49.439Z,70.43
2018-10-01T02:44:17.326Z,69.98
2018-10-01T02:46:44.191Z,70.24
2018-10-01T02:49:11.032Z,69.21
2018-10-01T02:51:43.517Z,71.17
2018-10-01T02:54:16.171Z,71.49
2018-10-01T02:56:43.081Z,70.93
2018-10-01T02:59:09.946Z,71.81
2018-10-01T03:01:36.875Z,72.11
2018-10-01T03:04:03.695Z,72.01
2018-10-01T03:06:30.593Z,72.48
2018-10-01T03:08:57.511Z,71.81
2018-10-01T03:11:24.431Z,70.48
2018-10-01T03:13:51.254Z,71.16
2018-10-01T03:16:18.116Z,71.32
2018-10-01T03:18:44.998Z,71.45
2018-10-01T03:21:11.966Z,71.81
2018-10-01T03:23:38.926Z,69.12
2018-10-01T03:26:05.838Z,70.65
2018-10-01T03:28:34.746Z,71.06
2018-10-01T03:31:01.656Z,71.46
2018-10-01T03:33:28.579Z,72.54
2018-10-01T03:35:55.443Z,72.50
2018-10-01T03:38:22.392Z,70.55
2018-10-01T03:40:49.335Z,69.81
2018-10-01T03:43:16.155Z,69.76
2018-10-01T03:45:43.043Z,69.70
2018-10-01T03:48:10.235Z,70.58
2018-10-01T03:50:37.195Z,71.63
2018-10-01T03:53:04.108Z,71.41
2018-10-01T03:55:30.963Z,71.52
2018-10-01T03:57:57.828Z,71.67
2018-10-01T04:00:24.724Z,70.93
2018-10-01T04:02:51.674Z,71.43
2018-10-01T04:05:18.570Z,72.11
2018-10-01T04:07:45.443Z,71.85
2018-10-01T04:10:12.299Z,71.88
2018-10-01T04:12:39.170Z,72.53
2018-10-01T04:15:06.066Z,72.73
2018-10-01T04:17:33.218Z,72.09
2018-10-01T04:20:00.049Z,72.29
2018-10-01T04:22:33.499Z,71.85
2018-10-01T04:25:01.325Z,71.86
2018-10-01T04:27:28.177Z,73.05
2018-10-01T04:29:55.006Z,72.66
2018-10-01T04:32:21.906Z,72.07
2018-10-01T04:34:48.850Z,70.65
2018-10-01T04:37:15.688Z,71.83
2018-10-01T04:39:42.559Z,71.61
2018-10-01T04:42:09.455Z,71.13
2018-10-01T04:44:36.373Z,71.22
2018-10-01T04:47:03.235Z,70.89
2018-10-01T04:49:30.186Z,70.97
2018-10-01T04:51:57.007Z,71.39
2018-10-01T04:54:23.891Z,70.16
2018-10-01T04:56:50.742Z,70.54
2018-10-01T04:59:17.598Z,68.74
2018-10-01T05:01:44.447Z,68.91
2018-10-01T05:04:11.740Z,69.08
2018-10-01T05:06:38.236Z,68.59
2018-10-01T05:09:07.173Z,69.35
2018-10-01T05:11:34.038Z,70.72
2018-10-01T05:14:00.874Z,72.15
2018-10-01T05:16:27.734Z,72.79
2018-10-01T05:18:54.585Z,72.59
2018-10-01T05:21:21.470Z,71.37
2018-10-01T05:23:48.415Z,73.07
2018-10-01T05:26:15.268Z,72.84
2018-10-01T05:28:42.110Z,71.54
2018-10-01T05:31:08.954Z,71.82
2018-10-01T05:33:35.842Z,71.58
2018-10-01T05:36:02.670Z,71.61
2018-10-01T05:38:29.509Z,72.81
2018-10-01T05:40:56.375Z,73.74
2018-10-01T05:43:23.917Z,73.57
2018-10-01T05:45:51.830Z,74.23
2018-10-01T05:48:18.666Z,72.33
2018-10-01T05:50:45.506Z,73.43
2018-10-01T05:53:12.462Z,71.98
2018-10-01T05:55:39.380Z,72.87
2018-10-01T05:58:06.377Z,73.37
2018-10-01T06:00:33.662Z,73.05
2018-10-01T06:03:00.530Z,73.80
2018-10-01T06:05:27.389Z,71.16
2018-10-01T06:07:54.381Z,70.87
2018-10-01T06:10:21.429Z,71.79
2018-10-01T06:12:48.385Z,72.05
2018-10-01T06:15:15.320Z,71.92
2018-10-01T06:17:42.154Z,71.51
2018-10-01T06:20:08.994Z,71.62
2018-10-01T06:22:35.902Z,70.81
2018-10-01T06:25:03.477Z,72.09
2018-10-01T06:27:30.324Z,72.36
2018-10-01T06:29:57.145Z,72.82
2018-10-01T06:32:24.013Z,72.64
2018-10-01T06:34:50.886Z,73.73
2018-10-01T06:37:17.963Z,73.73
2018-10-01T06:39:44.894Z,73.79
2018-10-01T06:42:11.756Z,74.54
2018-10-01T06:44:38.606Z,74.20
2018-10-01T06:47:05.714Z,74.45
2018-10-01T06:49:32.625Z,74.33
2018-10-01T06:51:59.458Z,73.34
2018-10-01T06:54:26.376Z,72.82
2018-10-01T06:56:53.342Z,72.54
2018-10-01T06:59:20.249Z,73.36
2018-10-01T07:01:47.207Z,72.69
2018-10-01T07:04:14.022Z,73.04
2018-10-01T07:06:40.906Z,71.78
2018-10-01T07:09:08.581Z,70.33
2018-10-01T07:11:35.679Z,69.73
2018-10-01T07:14:02.408Z,70.03
2018-10-01T07:16:29.352Z,68.85
2018-10-01T07:18:56.109Z,68.47
2018-10-01T07:21:23.007Z,69.02
2018-10-01T07:23:49.919Z,68.16
2018-10-01T07:26:16.759Z,67.28
2018-10-01T07:28:43.653Z,67.26
2018-10-01T07:31:10.582Z,67.87
2018-10-01T07:33:37.433Z,67.55
2018-10-01T07:36:04.262Z,66.93
2018-10-01T07:38:31.174Z,67.14
2018-10-01T07:40:58.146Z,66.71
2018-10-01T07:43:25.061Z,67.22
2018-10-01T07:45:51.938Z,65.63
2018-10-01T07:48:18.814Z,65.58
2018-10-01T07:50:45.856Z,65.99
2018-10-01T07:53:12.607Z,66.84
2018-10-01T07:55:39.546Z,66.31
2018-10-01T07:58:06.394Z,67.15
2018-10-01T08:00:33.311Z,66.90
2018-10-01T08:03:00.246Z,67.22
2018-10-01T08:05:27.170Z,66.93
2018-10-01T08:07:53.995Z,69.01
2018-10-01T08:10:20.898Z,67.92
2018-10-01T08:12:47.830Z,66.81
2018-10-01T08:15:14.694Z,66.57
2018-10-01T08:17:41.538Z,67.15
2018-10-01T08:20:08.468Z,66.22
2018-10-01T08:22:35.358Z,66.65
2018-10-01T08:25:02.238Z,67.12
2018-10-01T08:27:29.178Z,68.50
2018-10-01T08:29:56.163Z,67.31
2018-10-01T08:32:22.871Z,66.60
2018-10-01T08:34:49.737Z,67.37
2018-10-01T08:37:16.585Z,66.08
2018-10-01T08:39:43.446Z,65.72
2018-10-01T08:42:10.310Z,65.66
2018-10-01T08:44:37.230Z,65.66
2018-10-01T08:47:05.093Z,65.50
2018-10-01T08:49:43.923Z,64.15
2018-10-01T08:52:20.246Z,63.70
2018-10-01T08:54:47.829Z,63.02
2018-10-01T08:57:14.672Z,63.36
2018-10-01T08:59:41.558Z,62.37
2018-10-01T09:02:08.566Z,63.66
2018-10-01T09:04:36.378Z,62.39
2018-10-01T09:07:03.233Z,61.60
2018-10-01T09:09:30.073Z,60.33
2018-10-01T09:11:57.134Z,60.16
2018-10-01T09:14:23.975Z,61.13
2018-10-01T09:16:50.858Z,59.80
2018-10-01T09:19:17.702Z,58.49
2018-10-01T09:21:44.567Z,58.31
2018-10-01T09:24:11.426Z,60.14
2018-10-01T09:26:38.340Z,58.69
2018-10-01T09:29:05.222Z,60.42
2018-10-01T09:31:32.078Z,59.86
2018-10-01T09:33:58.953Z,58.85
2018-10-01T09:36:25.810Z,59.22
2018-10-01T09:38:52.986Z,59.11
2018-10-01T09:41:19.930Z,58.91
2018-10-01T09:43:46.866Z,59.44
2018-10-01T09:46:13.711Z,59.60
2018-10-01T09:48:40.578Z,59.01
2018-10-01T09:51:07.533Z,58.33
2018-10-01T09:53:34.410Z,57.18
2018-10-01T09:56:01.308Z,58.64
2018-10-01T09:58:28.107Z,58.47
2018-10-01T10:01:00.654Z,58.04
2018-10-01T10:03:27.599Z,57.53
2018-10-01T10:05:54.572Z,56.65
2018-10-01T10:08:21.517Z,56.21
2018-10-01T10:10:48.431Z,55.72
2018-10-01T10:13:15.425Z,55.47
2018-10-01T10:15:43.372Z,55.13
2018-10-01T10:18:10.190Z,54.97
2018-10-01T10:20:37.109Z,54.50
2018-10-01T10:23:03.937Z,54.07
2018-10-01T10:25:30.931Z,54.83
2018-10-01T10:27:57.843Z,54.14
2018-10-01T10:30:24.714Z,51.97
2018-10-01T10:32:51.639Z,51.65
2018-10-01T10:35:18.587Z,52.72
2018-10-01T10:37:45.460Z,53.40
2018-10-01T10:40:12.344Z,52.94
2018-10-01T10:42:39.279Z,54.37
2018-10-01T10:45:06.172Z,54.19
2018-10-01T10:47:33.073Z,53.58
2018-10-01T10:50:00.054Z,53.35
2018-10-01T10:52:26.889Z,51.40
2018-10-01T10:54:53.750Z,51.13
2018-10-01T10:57:20.615Z,50.71
2018-10-01T10:59:47.458Z,51.84
2018-10-01T11:02:14.387Z,48.59
2018-10-01T11:04:41.269Z,47.23
2018-10-01T11:07:08.176Z,48.54
2018-10-01T11:09:35.078Z,49.15
2018-10-01T11:12:01.907Z,50.48
2018-10-01T11:14:28.828Z,51.09
2018-10-01T11:16:55.782Z,51.12
2018-10-01T11:19:22.859Z,51.43
2018-10-01T11:21:49.681Z,50.36
2018-10-01T11:24:16.494Z,50.17
2018-10-01T11:26:44.460Z,50.89
2018-10-01T11:29:11.303Z,49.27
2018-10-01T11:31:38.158Z,49.78
2018-10-01T11:34:04.950Z,50.33
2018-10-01T11:36:31.822Z,51.52
2018-10-01T11:38:58.724Z,50.63
2018-10-01T11:41:25.655Z,49.33
2018-10-01T11:43:52.642Z,49.53
2018-10-01T11:46:19.458Z,49.50
2018-10-01T11:48:46.293Z,50.39
2018-10-01T11:51:13.252Z,51.14
2018-10-01T11:53:40.121Z,51.26
2018-10-01T11:56:06.958Z,51.52
2018-10-01T11:58:33.823Z,52.10
2018-10-01T12:01:00.686Z,51.17
2018-10-01T12:03:27.543Z,49.43
2018-10-01T12:05:54.388Z,49.38
2018-10-01T12:08:21.222Z,48.95
2018-10-01T12:10:48.107Z,48.65
2018-10-01T12:13:15.037Z,47.47
2018-10-01T12:15:41.936Z,46.35
2018-10-01T12:18:08.775Z,46.38
2018-10-01T12:20:36.011Z,47.20
2018-10-01T12:23:02.782Z,49.66
2018-10-01T12:25:29.663Z,50.15
2018-10-01T12:27:56.594Z,50.21
2018-10-01T12:30:23.426Z,50.12
2018-10-01T12:32:50.294Z,50.29
2018-10-01T12:35:17.270Z,50.21
2018-10-01T12:37:44.422Z,49.86
2018-10-01T12:40:11.319Z,50.19
2018-10-01T12:42:38.283Z,50.50
2018-10-01T12:45:05.892Z,50.81
2018-10-01T12:47:32.770Z,50.58
2018-10-01T12:49:59.618Z,49.11
2018-10-01T12:52:26.486Z,49.98
2018-10-01T12:54:53.354Z,49.86
2018-10-01T12:57:20.376Z,49.88
2018-10-01T12:59:47.154Z,49.33
2018-10-01T13:02:13.978Z,49.17
2018-10-01T13:04:40.874Z,49.69
2018-10-01T13:07:07.802Z,47.32
2018-10-01T13:09:34.688Z,46.42
2018-10-01T13:12:01.642Z,47.01
2018-10-01T13:14:28.450Z,45.32
2018-10-01T13:16:57.386Z,45.14
2018-10-01T13:19:24.262Z,46.46
2018-10-01T13:21:51.204Z,46.34
2018-10-01T13:24:18.153Z,47.13
2018-10-01T13:26:44.909Z,47.21
2018-10-01T13:29:11.776Z,46.62
2018-10-01T13:31:38.618Z,46.60
2018-10-01T13:34:06.502Z,46.47
2018-10-01T13:36:33.422Z,47.30
2018-10-01T13:39:00.211Z,46.38
2018-10-01T13:41:27.060Z,46.35
2018-10-01T13:43:53.946Z,47.28
2018-10-01T13:46:20.873Z,47.35
2018-10-01T13:48:47.849Z,46.42
2018-10-01T13:51:14.687Z,46.34
2018-10-01T13:53:41.550Z,44.62
2018-10-01T13:56:08.402Z,44.08
2018-10-01T13:58:35.239Z,44.83
2018-10-01T14:01:02.125Z,45.53
2018-10-01T14:03:29.973Z,46.76
2018-10-01T14:05:56.810Z,47.47
2018-10-01T14:08:23.686Z,47.29
2018-10-01T14:10:50.530Z,47.12
2018-10-01T14:13:17.525Z,46.55
2018-10-01T14:15:44.426Z,45.25
2018-10-01T14:18:11.314Z,44.75
2018-10-01T14:20:38.166Z,44.79
2018-10-01T14:23:06.062Z,44.68
2018-10-01T14:25:33.001Z,44.66
2018-10-01T14:27:59.874Z,45.68
2018-10-01T14:30:26.789Z,46.53
2018-10-01T14:32:53.682Z,44.04
2018-10-01T14:35:20.525Z,44.30
2018-10-01T14:37:47.387Z,42.73
2018-10-01T14:40:14.242Z,44.05
2018-10-01T14:42:41.132Z,44.91
2018-10-01T14:45:08.180Z,47.24
2018-10-01T14:47:35.111Z,46.53
2018-10-01T14:50:01.957Z,46.13
2018-10-01T14:52:28.830Z,45.91
2018-10-01T14:54:55.682Z,47.21
2018-10-01T14:57:22.543Z,48.79
2018-10-01T14:59:49.378Z,49.21
2018-10-01T15:02:16.276Z,50.18
2018-10-01T15:04:43.197Z,52.11
2018-10-01T15:07:10.069Z,51.11
2018-10-01T15:09:37.035Z,51.61
2018-10-01T15:12:04.022Z,48.21
2018-10-01T15:14:30.828Z,48.23
2018-10-01T15:16:57.693Z,47.95
2018-10-01T15:19:24.669Z,47.03
2018-10-01T15:21:51.620Z,48.02
2018-10-01T15:24:18.565Z,48.05
2018-10-01T15:26:45.402Z,47.43
2018-10-01T15:29:12.250Z,46.78
2018-10-01T15:31:39.298Z,47.35
2018-10-01T15:34:06.182Z,47.17
2018-10-01T15:36:33.062Z,48.25
2018-10-01T15:38:59.882Z,47.84
2018-10-01T15:41:26.735Z,47.92
2018-10-01T15:43:53.614Z,48.55
2018-10-01T15:46:20.574Z,49.40
2018-10-01T15:48:47.515Z,48.48
2018-10-01T15:51:14.385Z,49.08
2018-10-01T15:53:41.240Z,49.01
2018-10-01T15:56:08.171Z,49.66
2018-10-01T15:58:35.042Z,50.09
2018-10-01T16:01:01.952Z,51.40
2018-10-01T16:03:28.869Z,50.79
2018-10-01T16:05:55.843Z,50.91
2018-10-01T16:08:22.814Z,51.67
2018-10-01T16:10:49.725Z,51.32
2018-10-01T16:13:16.573Z,52.60
2018-10-01T16:15:43.526Z,52.56
2018-10-01T16:18:10.434Z,53.17
2018-10-01T16:20:37.333Z,54.02
2018-10-01T16:23:04.195Z,53.78
2018-10-01T16:25:31.083Z,53.33
2018-10-01T16:27:57.878Z,54.11
2018-10-01T16:30:24.763Z,53.50
2018-10-01T16:32:51.629Z,53.15
2018-10-01T16:35:18.466Z,52.79
2018-10-01T16:37:45.362Z,51.97
2018-10-01T16:40:12.310Z,52.31
2018-10-01T16:42:39.294Z,51.78
2018-10-01T16:45:06.287Z,52.01
2018-10-01T16:47:33.471Z,53.41
2018-10-01T16:50:00.469Z,54.10
2018-10-01T16:52:27.450Z,54.37
2018-10-01T16:54:54.486Z,54.73
2018-10-01T16:57:21.421Z,55.14
2018-10-01T16:59:48.485Z,57.19
2018-10-01T17:02:15.511Z,57.25
2018-10-01T17:04:42.484Z,56.45
2018-10-01T17:07:09.488Z,57.72
2018-10-01T17:09:36.458Z,58.63
2018-10-01T17:12:03.450Z,59.65
2018-10-01T17:14:30.351Z,60.48
2018-10-01T17:16:59.322Z,60.82
2018-10-01T17:19:26.430Z,61.34
2018-10-01T17:21:53.429Z,61.74
2018-10-01T17:24:20.382Z,61.79
2018-10-01T17:26:47.238Z,61.58
2018-10-01T17:29:14.228Z,61.47
2018-10-01T17:31:41.211Z,61.74
2018-10-01T17:34:08.248Z,61.49
2018-10-01T17:36:35.190Z,60.82
2018-10-01T17:39:02.088Z,60.17
2018-10-01T17:41:28.985Z,59.45
2018-10-01T17:43:55.973Z,59.69
2018-10-01T17:46:22.826Z,58.75
2018-10-01T17:48:49.855Z,58.22
2018-10-01T17:51:16.777Z,59.16
2018-10-01T17:53:43.722Z,59.27
2018-10-01T17:56:10.675Z,59.82
2018-10-01T17:58:37.613Z,58.56
2018-10-01T18:01:04.449Z,59.78
2018-10-01T18:03:31.314Z,59.57
2018-10-01T18:05:58.725Z,59.61
2018-10-01T18:08:25.590Z,59.57
2018-10-01T18:10:52.580Z,60.02
2018-10-01T18:13:19.554Z,59.25
2018-10-01T18:15:46.490Z,59.45
2018-10-01T18:18:13.438Z,58.96
2018-10-01T18:20:40.329Z,59.83
2018-10-01T18:23:07.282Z,58.13
2018-10-01T18:25:34.230Z,58.57
2018-10-01T18:28:01.230Z,59.44
2018-10-01T18:30:28.183Z,58.99
2018-10-01T18:32:55.098Z,58.58
2018-10-01T18:35:21.965Z,59.77
2018-10-01T18:37:48.940Z,59.23
2018-10-01T18:40:17.952Z,58.80
2018-10-01T18:42:44.901Z,58.78
2018-10-01T18:45:11.931Z,59.22
2018-10-01T18:47:38.831Z,58.86
2018-10-01T18:50:06.330Z,58.99
2018-10-01T18:52:33.203Z,59.65
2018-10-01T18:55:00.112Z,59.61
2018-10-01T18:57:27.264Z,58.73
2018-10-01T18:59:54.126Z,60.39
2018-10-01T19:02:21.962Z,60.29
2018-10-01T19:04:48.870Z,59.42
2018-10-01T19:07:15.762Z,60.63
2018-10-01T19:09:44.700Z,60.37
2018-10-01T19:12:11.638Z,60.68
2018-10-01T19:14:38.462Z,61.73
2018-10-01T19:17:05.526Z,61.16
2018-10-01T19:19:32.298Z,61.51
2018-10-01T19:21:59.167Z,61.84
2018-10-01T19:24:26.185Z,61.67
2018-10-01T19:26:53.281Z,63.01
2018-10-01T19:29:22.006Z,61.44
2018-10-01T19:31:48.975Z,62.28
2018-10-01T19:34:15.926Z,62.19
2018-10-01T19:36:42.767Z,63.69
2018-10-01T19:39:09.699Z,63.95
2018-10-01T19:41:36.572Z,63.44
2018-10-01T19:44:03.507Z,65.57
2018-10-01T19:46:30.322Z,66.23
2018-10-01T19:48:57.237Z,66.33
2018-10-01T19:51:24.272Z,66.71
2018-10-01T19:53:51.109Z,66.89
2018-10-01T19:56:17.870Z,66.49
2018-10-01T19:58:44.751Z,65.76
2018-10-01T20:01:11.598Z,66.20
2018-10-01T20:03:38.487Z,65.86
2018-10-01T20:06:05.395Z,65.42
2018-10-01T20:08:32.275Z,65.56
2018-10-01T20:11:00.363Z,64.59
2018-10-01T20:13:27.201Z,64.54
2018-10-01T20:15:54.078Z,64.48
2018-10-01T20:18:20.910Z,64.27
2018-10-01T20:20:47.801Z,64.48
2018-10-01T20:23:14.714Z,64.57
2018-10-01T20:25:41.596Z,64.53
2018-10-01T20:28:08.778Z,64.25
2018-10-01T20:30:36.416Z,64.16
2018-10-01T20:33:03.275Z,65.09
2018-10-01T20:35:30.286Z,65.13
2018-10-01T20:37:58.061Z,65.27
2018-10-01T20:40:24.860Z,65.44
2018-10-01T20:42:51.744Z,65.42
2018-10-01T20:45:18.670Z,64.99
2018-10-01T20:47:45.521Z,65.45
2018-10-01T20:50:12.352Z,64.96
2018-10-01T20:52:39.245Z,66.25
2018-10-01T20:55:06.142Z,66.36
2018-10-01T20:57:33.080Z,65.41
2018-10-01T20:59:59.934Z,66.10
2018-10-01T21:02:26.921Z,66.63
2018-10-01T21:04:53.825Z,65.30
2018-10-01T21:07:20.667Z,65.94
2018-10-01T21:09:47.522Z,65.50
2018-10-01T21:12:14.416Z,65.36
2018-10-01T21:14:41.223Z,65.36
2018-10-01T21:17:08.096Z,65.42
2018-10-01T21:19:34.954Z,65.28
2018-10-01T21:22:01.834Z,64.72
2018-10-01T21:24:28.800Z,65.72
2018-10-01T21:26:55.714Z,66.21
2018-10-01T21:29:23.602Z,65.73
2018-10-01T21:31:50.426Z,64.38
2018-10-01T21:34:17.334Z,63.51
2018-10-01T21:36:44.262Z,64.46
2018-10-01T21:39:22.985Z,65.38
2018-10-01T21:41:49.849Z,66.01
2018-10-01T21:44:16.698Z,65.53
2018-10-01T21:46:43.578Z,65.82
2018-10-01T21:49:10.534Z,67.13
2018-10-01T21:51:37.498Z,66.93
2018-10-01T21:54:04.339Z,66.83
2018-10-01T21:56:31.278Z,67.64
2018-10-01T21:58:58.137Z,67.12
2018-10-01T22:01:30.953Z,68.34
2018-10-01T22:03:57.886Z,68.21
2018-10-01T22:06:24.750Z,68.93
2018-10-01T22:08:51.574Z,69.34
2018-10-01T22:11:18.455Z,68.90
2018-10-01T22:13:46.334Z,69.21
2018-10-01T22:16:13.219Z,69.69
2018-10-01T22:18:40.054Z,69.58
2018-10-01T22:21:06.909Z,69.72
2018-10-01T22:23:33.758Z,70.46
2018-10-01T22:26:00.603Z,70.68
2018-10-01T22:28:27.464Z,70.85
2018-10-01T22:30:54.314Z,70.89
2018-10-01T22:33:21.183Z,71.07
2018-10-01T22:35:48.126Z,70.72
2018-10-01T22:38:14.973Z,71.61
2018-10-01T22:40:41.852Z,71.04
2018-10-01T22:43:08.699Z,72.04
2018-10-01T22:45:35.554Z,70.14
2018-10-01T22:48:02.406Z,69.79
2018-10-01T22:50:30.290Z,68.96
2018-10-01T22:52:57.170Z,69.74
2018-10-01T22:55:24.101Z,69.33
2018-10-01T22:57:50.938Z,68.76
2018-10-01T23:00:17.823Z,70.02
2018-10-01T23:02:44.717Z,70.25
2018-10-01T23:05:11.622Z,70.42
2018-10-01T23:07:38.453Z,71.15
2018-10-01T23:10:05.337Z,71.50
2018-10-01T23:12:32.201Z,71.31
2018-10-01T23:14:59.161Z,70.80
2018-10-01T23:17:26.116Z,70.87
2018-10-01T23:19:53.062Z,70.44
2018-10-01T23:22:19.914Z,70.44
2018-10-01T23:24:46.754Z,70.29
2018-10-01T23:27:13.630Z,70.47
2018-10-01T23:29:40.515Z,71.75
2018-10-01T23:32:07.454Z,71.76
2018-10-01T23:34:35.453Z,72.57
2018-10-01T23:37:03.692Z,73.38
2018-10-01T23:39:30.553Z,74.86
2018-10-01T23:41:57.393Z,73.40
2018-10-01T23:44:24.269Z,74.47
2018-10-01T23:46:52.169Z,74.33
2018-10-01T23:49:19.158Z,74.55
2018-10-01T23:51:45.997Z,74.63
2018-10-01T23:54:12.913Z,74.77
2018-10-01T23:56:39.788Z,75.45
2018-10-01T23:59:06.813Z,75.27
